Time;durP1;ratioP1;P1;durP2;ratioP2;P2;SDS_P1;SDS_P2;PMS_P1;PMS_P2;Temp;Humidity;BMP_temperature;BMP_pressure;BME280_temperature;BME280_humidity;BME280_pressure;Samples;Min_cycle;Max_cycle;Signal;HPM_P1;HPM_P2
2022/07/31 00:02:06;;;;;;;;;;;;;;;19.58;31.73;95840.28;5008195;28;19986;-63
2022/07/31 00:04:31;;;;;;;;;;;;;;;19.60;32.25;95842.75;5006389;28;20348;-63
2022/07/31 00:06:56;;;;;;;;;;;;;;;19.69;31.92;95841.34;5011541;28;19972;-63
2022/07/31 00:09:22;;;;;;;;;;;;;;;19.80;31.30;95837.06;5019568;28;20160;-63
2022/07/31 00:11:47;;;;;;;;;;;;;;;19.80;31.50;95844.31;5011047;28;19970;-63
2022/07/31 00:14:12;;;;;;;;;;;;;;;19.77;31.98;95844.78;5010418;28;20410;-63
2022/07/31 00:16:37;;;;;;;;;;;;;;;19.71;32.45;95844.66;5004915;28;20060;-64
2022/07/31 00:19:02;;;;;;;;;;;;;;;19.69;32.03;95843.25;5004755;28;19974;-63
2022/07/31 00:21:28;;;;;;;;;;;;;;;19.70;32.31;95847.59;5008137;28;19996;-63
2022/07/31 00:23:53;;;;;;;;;;;;;;;19.70;32.27;95839.47;5007796;28;19971;-63
2022/07/31 00:26:18;;;;;;;;;;;;;;;19.67;32.47;95839.94;5004067;28;20202;-64
2022/07/31 00:28:46;;;;;;;;;;;;;;;19.67;32.55;95838.06;5004549;28;19976;-63
2022/07/31 00:31:11;;;;;;;;;;;;;;;19.69;32.35;95837.84;5012289;28;19988;-63
2022/07/31 00:33:36;;;;;;;;;;;;;;;19.69;32.52;95829.75;5015731;28;20534;-63
2022/07/31 00:36:02;;;;;;;;;;;;;;;19.66;32.66;95830.19;5006110;28;19998;-63
2022/07/31 00:38:27;;;;;;;;;;;;;;;19.68;33.13;95822.72;5004251;28;19995;-63
2022/07/31 00:40:52;;;;;;;;;;;;;;;19.64;33.43;95825.03;5010483;28;20045;-63
2022/07/31 00:43:17;;;;;;;;;;;;;;;19.60;33.46;95823.84;5015505;28;20521;-63
2022/07/31 00:45:43;;;;;;;;;;;;;;;19.58;33.23;95821.38;5010166;28;20079;-63
2022/07/31 00:48:08;;;;;;;;;;;;;;;19.53;33.27;95818.56;5008713;28;20419;-63
2022/07/31 00:50:33;;;;;;;;;;;;;;;19.51;33.66;95817.94;5009820;28;19995;-63
2022/07/31 00:52:59;;;;;;;;;;;;;;;19.49;33.82;95811.13;5009402;28;20446;-63
2022/07/31 00:55:25;;;;;;;;;;;;;;;19.45;33.83;95808.91;5011785;28;20076;-62
2022/07/31 00:57:50;;;;;;;;;;;;;;;19.44;34.14;95806.41;4998116;28;19990;-63
2022/07/31 01:00:16;;;;;;;;;;;;;;;19.42;34.15;95808.53;5012147;28;20077;-63
2022/07/31 01:02:41;;;;;;;;;;;;;;;19.42;33.84;95805.84;5010249;28;20047;-63
2022/07/31 01:05:06;;;;;;;;;;;;;;;19.40;33.60;95797.13;5013582;28;20065;-63
2022/07/31 01:07:32;;;;;;;;;;;;;;;19.43;33.25;95807.47;5009462;28;20019;-63
2022/07/31 01:09:57;;;;;;;;;;;;;;;19.52;32.92;95805.28;5009874;28;19994;-63
2022/07/31 01:12:30;;;;;;;;;;;;;;;19.55;32.93;95807.53;5008882;28;20263;-63
2022/07/31 01:14:56;;;;;;;;;;;;;;;19.42;33.44;95808.53;4994688;28;20397;-63
2022/07/31 01:17:22;;;;;;;;;;;;;;;19.36;34.31;95798.66;5023057;28;19983;-62
2022/07/31 01:19:47;;;;;;;;;;;;;;;19.32;34.27;95799.13;4992233;28;20437;-63
2022/07/31 01:22:15;;;;;;;;;;;;;;;19.30;34.22;95798.53;5010361;28;20066;-63
2022/07/31 01:25:02;;;;;;;;;;;;;;;19.27;34.40;95799.00;5009154;28;19994;-63
2022/07/31 01:27:34;;;;;;;;;;;;;;;19.23;33.88;95805.88;4990812;28;19969;-63
2022/07/31 01:30:00;;;;;;;;;;;;;;;19.19;34.65;95797.41;4991397;28;19981;-63
2022/07/31 01:32:30;;;;;;;;;;;;;;;19.17;34.59;95801.41;4991051;28;20446;-63
2022/07/31 01:35:05;;;;;;;;;;;;;;;19.16;34.33;95795.16;4996516;28;20061;-63
2022/07/31 01:37:44;;;;;;;;;;;;;;;19.12;34.27;95793.97;4999543;28;19997;-63
2022/07/31 01:40:13;;;;;;;;;;;;;;;19.20;33.80;95790.13;4989297;28;19992;-63
2022/07/31 01:42:39;;;;;;;;;;;;;;;19.25;33.91;95792.97;5005528;28;20029;-63
2022/07/31 01:45:05;;;;;;;;;;;;;;;19.16;34.51;95788.94;4989199;28;19985;-63
2022/07/31 01:47:31;;;;;;;;;;;;;;;19.12;34.62;95779.66;5007070;28;20345;-62
2022/07/31 01:49:57;;;;;;;;;;;;;;;19.07;34.83;95781.16;5006461;28;20135;-63
2022/07/31 01:52:23;;;;;;;;;;;;;;;18.99;34.94;95778.78;5006185;28;20291;-63
2022/07/31 01:54:48;;;;;;;;;;;;;;;18.88;35.08;95774.16;5013077;28;19993;-62
2022/07/31 01:57:13;;;;;;;;;;;;;;;18.77;35.57;95784.66;4990308;28;19987;-63
2022/07/31 01:59:39;;;;;;;;;;;;;;;18.74;35.38;95776.22;5007323;28;20019;-63
2022/07/31 02:02:04;;;;;;;;;;;;;;;18.78;34.91;95783.63;4990666;28;20466;-63
2022/07/31 02:04:29;;;;;;;;;;;;;;;18.82;35.22;95789.38;5015408;28;20021;-63
2022/07/31 02:06:55;;;;;;;;;;;;;;;18.86;35.12;95787.88;4989439;28;19962;-63
2022/07/31 02:09:20;;;;;;;;;;;;;;;18.72;34.88;95784.53;5006537;28;19996;-63
2022/07/31 02:11:45;;;;;;;;;;;;;;;18.65;35.45;95789.19;5007875;28;20620;-63
2022/07/31 02:14:11;;;;;;;;;;;;;;;18.62;35.84;95792.31;5006502;28;20445;-63
2022/07/31 02:16:36;;;;;;;;;;;;;;;18.55;35.55;95784.28;5009061;28;20378;-63
2022/07/31 02:19:02;;;;;;;;;;;;;;;18.49;35.83;95787.91;5007137;28;19968;-63
2022/07/31 02:21:27;;;;;;;;;;;;;;;18.50;35.56;95784.16;5000575;28;19995;-63
2022/07/31 02:23:53;;;;;;;;;;;;;;;18.53;34.77;95779.13;5015523;28;20429;-63
2022/07/31 02:26:18;;;;;;;;;;;;;;;18.37;34.89;95779.72;5007167;28;20382;-63
2022/07/31 02:28:43;;;;;;;;;;;;;;;18.07;35.76;95783.97;4987757;28;20486;-63
2022/07/31 02:31:09;;;;;;;;;;;;;;;17.96;36.08;95774.75;4989770;28;20021;-63
2022/07/31 02:33:35;;;;;;;;;;;;;;;17.92;36.30;95770.84;5006030;28;20345;-63
2022/07/31 02:36:01;;;;;;;;;;;;;;;17.85;35.93;95770.06;4989903;28;20421;-63
2022/07/31 02:38:26;;;;;;;;;;;;;;;17.74;36.02;95775.09;5006353;28;20087;-63
2022/07/31 02:41:02;;;;;;;;;;;;;;;17.69;35.98;95771.44;5001294;28;20645;-63
2022/07/31 02:43:27;;;;;;;;;;;;;;;17.61;35.74;95777.94;4987968;28;20118;-63
2022/07/31 02:45:53;;;;;;;;;;;;;;;17.55;36.18;95771.53;5016071;28;20345;-63
2022/07/31 02:48:18;;;;;;;;;;;;;;;17.47;36.11;95769.13;5006017;28;19982;-63
2022/07/31 02:50:44;;;;;;;;;;;;;;;17.32;36.46;95761.34;4989023;28;19989;-64
2022/07/31 02:53:09;;;;;;;;;;;;;;;17.19;36.82;95765.78;5006846;28;20438;-63
2022/07/31 02:55:34;;;;;;;;;;;;;;;17.15;36.53;95767.25;5007517;28;20457;-63
2022/07/31 02:58:00;;;;;;;;;;;;;;;17.09;37.04;95760.84;5005455;28;19997;-63
2022/07/31 03:00:26;;;;;;;;;;;;;;;17.08;36.59;95759.22;4989131;28;20480;-63
2022/07/31 03:02:54;;;;;;;;;;;;;;;16.90;37.13;95762.63;4987966;28;20086;-64
2022/07/31 03:05:19;;;;;;;;;;;;;;;16.85;37.47;95760.56;5005828;28;19988;-64
2022/07/31 03:07:45;;;;;;;;;;;;;;;16.85;37.24;95765.94;5006287;28;19969;-63
2022/07/31 03:10:10;;;;;;;;;;;;;;;16.86;36.58;95772.16;5020464;28;20218;-63
2022/07/31 03:12:38;;;;;;;;;;;;;;;16.78;37.21;95770.53;5011934;28;20488;-63
2022/07/31 03:15:04;;;;;;;;;;;;;;;16.64;37.49;95769.78;5008100;28;20048;-64
2022/07/31 03:17:29;;;;;;;;;;;;;;;16.60;37.38;95772.06;5011732;28;20465;-63
2022/07/31 03:19:54;;;;;;;;;;;;;;;16.64;37.04;95772.47;4992400;28;20226;-64
2022/07/31 03:22:20;;;;;;;;;;;;;;;16.61;37.38;95768.34;5006560;28;19990;-63
2022/07/31 03:24:45;;;;;;;;;;;;;;;16.53;37.23;95771.28;5007849;28;19997;-63
2022/07/31 03:27:10;;;;;;;;;;;;;;;16.51;37.55;95779.53;5013138;28;20015;-63
2022/07/31 03:29:36;;;;;;;;;;;;;;;16.46;37.46;95770.47;5007692;28;19993;-64
2022/07/31 03:32:01;;;;;;;;;;;;;;;16.49;37.08;95765.47;5005531;28;20622;-63
2022/07/31 03:34:26;;;;;;;;;;;;;;;16.50;37.17;95764.47;5015248;28;20032;-63
2022/07/31 03:36:52;;;;;;;;;;;;;;;16.50;36.85;95769.84;5010377;28;19997;-63
2022/07/31 03:39:17;;;;;;;;;;;;;;;16.41;37.45;95768.41;4987651;28;20426;-64
2022/07/31 03:41:42;;;;;;;;;;;;;;;16.29;37.80;95767.38;5007639;28;20349;-63
2022/07/31 03:44:07;;;;;;;;;;;;;;;16.23;38.06;95761.81;5005432;28;19984;-64
2022/07/31 03:46:33;;;;;;;;;;;;;;;16.21;38.45;95761.19;5004760;28;19993;-64
2022/07/31 03:48:58;;;;;;;;;;;;;;;16.25;38.81;95759.75;5007728;28;20555;-63
2022/07/31 03:51:23;;;;;;;;;;;;;;;16.26;38.87;95761.38;5006402;28;20325;-63
2022/07/31 03:53:50;;;;;;;;;;;;;;;16.29;38.74;95760.16;4989208;28;19993;-63
2022/07/31 03:56:16;;;;;;;;;;;;;;;16.35;38.64;95764.69;4989445;28;20092;-63
2022/07/31 03:58:41;;;;;;;;;;;;;;;16.51;37.70;95763.41;5005307;28;20477;-63
2022/07/31 04:01:06;;;;;;;;;;;;;;;16.51;37.43;95760.72;5008903;28;20001;-64
2022/07/31 04:03:32;;;;;;;;;;;;;;;16.33;38.14;95761.38;5019080;28;20061;-63
2022/07/31 04:05:57;;;;;;;;;;;;;;;16.36;38.48;95765.53;5004902;28;19999;-63
2022/07/31 04:08:22;;;;;;;;;;;;;;;16.39;38.76;95767.81;5007866;28;19969;-64
2022/07/31 04:10:48;;;;;;;;;;;;;;;16.42;39.04;95764.66;5007856;28;20016;-63
2022/07/31 04:13:13;;;;;;;;;;;;;;;16.52;38.77;95770.44;5005854;28;20346;-64
2022/07/31 04:15:38;;;;;;;;;;;;;;;16.63;38.61;95768.13;5006506;28;20057;-63
2022/07/31 04:18:03;;;;;;;;;;;;;;;16.72;38.41;95769.53;5007224;28;20056;-63
2022/07/31 04:20:29;;;;;;;;;;;;;;;16.84;38.03;95761.63;5007306;28;20068;-63
2022/07/31 04:22:54;;;;;;;;;;;;;;;16.93;37.65;95774.81;5006481;28;20509;-63
2022/07/31 04:25:19;;;;;;;;;;;;;;;17.05;37.78;95767.69;5010241;28;20198;-63
2022/07/31 04:27:44;;;;;;;;;;;;;;;17.18;37.33;95764.16;5005462;28;19978;-64
2022/07/31 04:30:10;;;;;;;;;;;;;;;17.21;37.67;95765.56;5008725;28;19994;-64
2022/07/31 04:32:35;;;;;;;;;;;;;;;17.29;37.67;95762.63;5007387;28;20381;-63
2022/07/31 04:35:01;;;;;;;;;;;;;;;17.38;37.32;95766.69;5005094;28;19973;-63
2022/07/31 04:37:27;;;;;;;;;;;;;;;17.45;37.10;95763.13;5010596;28;19994;-63
2022/07/31 04:39:52;;;;;;;;;;;;;;;17.55;37.28;95771.53;5006885;28;20424;-63
2022/07/31 04:42:18;;;;;;;;;;;;;;;17.65;37.20;95771.88;5008587;28;20042;-64
2022/07/31 04:44:44;;;;;;;;;;;;;;;17.71;36.70;95764.78;5010063;28;20194;-63
2022/07/31 04:47:09;;;;;;;;;;;;;;;17.75;36.64;95765.97;5013496;28;19968;-64
2022/07/31 04:49:34;;;;;;;;;;;;;;;17.83;36.89;95770.28;5005964;28;20143;-64
2022/07/31 04:51:59;;;;;;;;;;;;;;;17.92;36.70;95771.66;5006398;28;19972;-63
2022/07/31 04:54:25;;;;;;;;;;;;;;;17.99;37.00;95768.94;5007604;28;20590;-63
2022/07/31 04:56:50;;;;;;;;;;;;;;;18.07;36.46;95761.59;5004097;28;20024;-64
2022/07/31 04:59:16;;;;;;;;;;;;;;;18.15;36.42;95764.81;5014057;28;19982;-64
2022/07/31 05:01:41;;;;;;;;;;;;;;;18.26;36.39;95765.94;5003830;28;20005;-64
2022/07/31 05:04:07;;;;;;;;;;;;;;;18.37;36.59;95759.00;5007916;28;19970;-64
2022/07/31 05:06:33;;;;;;;;;;;;;;;18.49;35.83;95771.72;5006599;28;20342;-63
2022/07/31 05:08:58;;;;;;;;;;;;;;;18.53;36.13;95760.25;5007139;28;19988;-63
2022/07/31 05:11:24;;;;;;;;;;;;;;;18.59;35.96;95761.25;5014182;28;19967;-64
2022/07/31 05:13:53;;;;;;;;;;;;;;;18.65;35.67;95760.34;5010480;28;20014;-64
2022/07/31 05:16:18;;;;;;;;;;;;;;;18.74;35.93;95760.88;5009278;28;19977;-63
2022/07/31 05:18:44;;;;;;;;;;;;;;;18.85;35.39;95761.97;5009850;28;19990;-64
2022/07/31 05:21:10;;;;;;;;;;;;;;;18.89;35.53;95762.31;5006953;28;20359;-64
2022/07/31 05:23:35;;;;;;;;;;;;;;;18.92;35.82;95756.47;5007452;28;19972;-64
2022/07/31 05:26:00;;;;;;;;;;;;;;;19.00;35.47;95761.56;5010639;28;19995;-63
2022/07/31 05:28:26;;;;;;;;;;;;;;;19.09;35.25;95756.66;5015218;28;20057;-64
2022/07/31 05:30:51;;;;;;;;;;;;;;;19.24;35.26;95758.13;5009337;28;20486;-63
2022/07/31 05:33:16;;;;;;;;;;;;;;;19.40;35.26;95762.06;5011261;28;19989;-64
2022/07/31 05:35:41;;;;;;;;;;;;;;;19.49;34.87;95760.69;5014288;28;19993;-64
2022/07/31 05:38:06;;;;;;;;;;;;;;;19.58;33.92;95761.16;5015050;28;19997;-64
2022/07/31 05:40:32;;;;;;;;;;;;;;;19.67;34.19;95758.94;5011592;28;19988;-64
2022/07/31 05:42:57;;;;;;;;;;;;;;;19.79;34.56;95754.34;5014579;28;20048;-64
2022/07/31 05:45:22;;;;;;;;;;;;;;;19.89;34.74;95763.78;5012115;28;19988;-63
2022/07/31 05:47:47;;;;;;;;;;;;;;;20.02;34.52;95758.16;5013365;28;19964;-64
2022/07/31 05:50:13;;;;;;;;;;;;;;;20.09;34.58;95758.84;5011506;28;20505;-64
2022/07/31 05:52:38;;;;;;;;;;;;;;;20.14;34.48;95754.63;5010292;28;20590;-63
2022/07/31 05:55:04;;;;;;;;;;;;;;;20.22;33.60;95762.38;5009811;28;20019;-64
2022/07/31 05:57:29;;;;;;;;;;;;;;;20.27;32.99;95762.50;5009281;28;20094;-63
2022/07/31 05:59:54;;;;;;;;;;;;;;;20.42;32.70;95753.88;5009921;28;19985;-64
2022/07/31 06:02:19;;;;;;;;;;;;;;;20.54;32.76;95756.56;5008320;28;19986;-63
2022/07/31 06:04:45;;;;;;;;;;;;;;;20.66;32.37;95753.03;5007079;28;20282;-64
2022/07/31 06:07:10;;;;;;;;;;;;;;;20.75;32.19;95754.31;5010409;28;20017;-64
2022/07/31 06:09:35;;;;;;;;;;;;;;;20.94;31.84;95756.81;5010820;28;20483;-64
2022/07/31 06:12:00;;;;;;;;;;;;;;;21.05;31.72;95747.84;5008528;28;20327;-63
2022/07/31 06:14:26;;;;;;;;;;;;;;;21.12;31.46;95753.09;5013752;28;20060;-64
2022/07/31 06:16:52;;;;;;;;;;;;;;;21.23;31.39;95749.50;5014457;28;20016;-58
2022/07/31 06:19:19;;;;;;;;;;;;;;;21.36;31.27;95756.53;5008507;28;19974;-58
2022/07/31 06:21:44;;;;;;;;;;;;;;;21.54;30.82;95756.53;5008593;28;19987;-61
2022/07/31 06:24:09;;;;;;;;;;;;;;;21.62;31.23;95750.72;5007298;28;19970;-62
2022/07/31 06:26:35;;;;;;;;;;;;;;;21.76;31.01;95757.44;5015489;28;20034;-62
2022/07/31 06:29:00;;;;;;;;;;;;;;;21.88;30.92;95760.06;5016488;28;20560;-62
2022/07/31 06:31:25;;;;;;;;;;;;;;;22.01;30.73;95750.81;5007948;28;19956;-63
2022/07/31 06:33:50;;;;;;;;;;;;;;;22.07;29.99;95756.28;5005941;28;19981;-63
2022/07/31 06:36:16;;;;;;;;;;;;;;;22.14;30.66;95746.09;5015813;28;20009;-63
2022/07/31 06:38:41;;;;;;;;;;;;;;;22.29;30.19;95756.31;5006359;28;19987;-63
2022/07/31 06:41:06;;;;;;;;;;;;;;;22.37;30.65;95746.94;5006484;28;20072;-62
2022/07/31 06:43:31;;;;;;;;;;;;;;;22.47;30.32;95741.63;5008102;28;20050;-63
2022/07/31 06:45:56;;;;;;;;;;;;;;;22.50;29.65;95749.28;5014295;28;20013;-63
2022/07/31 06:48:22;;;;;;;;;;;;;;;22.65;29.78;95748.69;5005675;28;19955;-63
2022/07/31 06:50:47;;;;;;;;;;;;;;;22.84;29.27;95736.69;5006120;28;20431;-63
2022/07/31 06:53:12;;;;;;;;;;;;;;;23.04;29.12;95746.91;5009509;28;20058;-63
2022/07/31 06:55:39;;;;;;;;;;;;;;;23.13;28.15;95745.41;5005165;28;21522;-63
2022/07/31 06:58:05;;;;;;;;;;;;;;;23.36;28.29;95748.06;5007187;28;20059;-63
2022/07/31 07:00:30;;;;;;;;;;;;;;;23.49;28.04;95744.91;5005079;28;19978;-63
2022/07/31 07:02:55;;;;;;;;;;;;;;;23.73;27.98;95743.75;5006661;28;19953;-63
2022/07/31 07:05:20;;;;;;;;;;;;;;;24.06;27.58;95745.38;5006027;28;20053;-63
2022/07/31 07:07:46;;;;;;;;;;;;;;;24.41;26.34;95745.84;5012281;28;19964;-63
2022/07/31 07:10:11;;;;;;;;;;;;;;;24.46;25.18;95745.06;5020546;28;19998;-63
2022/07/31 07:12:36;;;;;;;;;;;;;;;24.67;24.76;95753.31;5004964;28;20030;-63
2022/07/31 07:15:02;;;;;;;;;;;;;;;24.05;25.45;95751.06;5005895;28;20359;-64
2022/07/31 07:17:27;;;;;;;;;;;;;;;24.08;25.68;95750.56;5005418;28;19970;-63
2022/07/31 07:19:52;;;;;;;;;;;;;;;24.35;24.93;95746.94;5008378;28;20078;-64
2022/07/31 07:22:17;;;;;;;;;;;;;;;22.51;26.97;95744.69;5006219;28;20060;-63
2022/07/31 07:24:43;;;;;;;;;;;;;;;23.81;26.14;95738.69;5008931;28;21380;-63
2022/07/31 07:27:08;;;;;;;;;;;;;;;24.12;24.96;95740.78;5007238;28;19945;-63
2022/07/31 07:29:33;;;;;;;;;;;;;;;23.94;25.87;95740.13;5006863;28;19973;-63
2022/07/31 07:31:58;;;;;;;;;;;;;;;23.75;25.77;95742.44;5009390;28;19975;-63
2022/07/31 07:34:24;;;;;;;;;;;;;;;22.27;28.63;95724.03;4989952;28;19975;-63
2022/07/31 07:36:49;;;;;;;;;;;;;;;23.21;25.92;95729.75;5007699;28;20339;-63
2022/07/31 07:39:14;;;;;;;;;;;;;;;22.66;26.87;95733.22;5006728;28;20297;-63
2022/07/31 07:41:40;;;;;;;;;;;;;;;22.30;27.74;95728.16;5004811;28;19983;-63
2022/07/31 07:44:06;;;;;;;;;;;;;;;22.82;26.96;95734.22;5006562;28;19960;-64
2022/07/31 07:46:31;;;;;;;;;;;;;;;22.31;28.00;95729.78;4997050;28;20432;-63
2022/07/31 07:48:56;;;;;;;;;;;;;;;22.77;27.18;95734.16;5003912;28;19983;-63
2022/07/31 07:51:21;;;;;;;;;;;;;;;23.67;26.09;95730.16;5006374;28;19958;-63
2022/07/31 07:53:47;;;;;;;;;;;;;;;23.59;25.67;95727.88;4990768;28;19983;-63
2022/07/31 07:56:12;;;;;;;;;;;;;;;23.29;26.08;95732.00;5005278;28;19964;-64
2022/07/31 07:58:37;;;;;;;;;;;;;;;24.06;25.36;95722.78;5010482;28;20303;-64
2022/07/31 08:01:03;;;;;;;;;;;;;;;22.53;27.21;95726.28;5009433;28;20018;-63
2022/07/31 08:03:28;;;;;;;;;;;;;;;22.96;27.37;95720.22;5004182;28;19954;-63
2022/07/31 08:05:53;;;;;;;;;;;;;;;24.06;25.54;95722.78;5004318;28;20669;-64
2022/07/31 08:08:18;;;;;;;;;;;;;;;24.37;25.23;95723.00;5005904;28;20000;-63
2022/07/31 08:10:43;;;;;;;;;;;;;;;24.36;25.23;95725.97;5004997;28;19995;-63
2022/07/31 08:13:09;;;;;;;;;;;;;;;24.18;25.01;95731.59;5006115;28;19968;-63
2022/07/31 08:15:34;;;;;;;;;;;;;;;23.60;25.36;95731.44;5006917;28;19964;-64
2022/07/31 08:17:59;;;;;;;;;;;;;;;22.88;25.82;95727.75;5007586;28;20026;-64
2022/07/31 08:20:24;;;;;;;;;;;;;;;23.56;25.68;95721.06;5006242;28;19985;-64
2022/07/31 08:22:50;;;;;;;;;;;;;;;22.91;27.35;95723.75;5009399;28;19951;-64
2022/07/31 08:25:15;;;;;;;;;;;;;;;23.28;26.42;95720.31;5005731;28;20040;-64
2022/07/31 08:27:40;;;;;;;;;;;;;;;23.23;26.84;95727.59;5008187;28;20004;-64
2022/07/31 08:30:06;;;;;;;;;;;;;;;23.67;25.42;95726.59;5004405;28;20476;-63
2022/07/31 08:32:31;;;;;;;;;;;;;;;23.47;25.33;95729.97;5005296;28;20492;-64
2022/07/31 08:34:56;;;;;;;;;;;;;;;22.80;26.99;95717.34;5005825;28;20192;-63
2022/07/31 08:37:21;;;;;;;;;;;;;;;21.37;28.99;95725.69;5006014;28;19988;-63
2022/07/31 08:39:50;;;;;;;;;;;;;;;21.97;28.26;95729.88;5015262;28;20054;-64
2022/07/31 08:42:15;;;;;;;;;;;;;;;21.74;28.84;95718.13;5005420;28;20471;-63
2022/07/31 08:44:41;;;;;;;;;;;;;;;22.11;28.24;95719.47;5004067;28;19984;-64
2022/07/31 08:47:07;;;;;;;;;;;;;;;21.93;28.35;95709.75;5004258;28;20443;-64
2022/07/31 08:49:34;;;;;;;;;;;;;;;22.27;28.28;95715.09;5006941;28;20965;-64
2022/07/31 08:52:00;;;;;;;;;;;;;;;21.12;29.18;95717.91;5011514;28;20021;-64
2022/07/31 08:54:25;;;;;;;;;;;;;;;21.71;29.70;95718.59;5007160;28;19984;-64
2022/07/31 08:56:53;;;;;;;;;;;;;;;21.78;28.24;95708.41;4986983;28;20260;-64
2022/07/31 08:59:18;;;;;;;;;;;;;;;21.46;28.64;95711.72;4987809;28;20058;-63
2022/07/31 09:01:44;;;;;;;;;;;;;;;21.04;29.49;95704.78;5013824;28;20074;-63
2022/07/31 09:04:09;;;;;;;;;;;;;;;21.20;28.72;95703.97;5011416;28;19966;-64
2022/07/31 09:06:35;;;;;;;;;;;;;;;21.08;29.41;95704.03;5009016;28;20444;-64
2022/07/31 09:09:00;;;;;;;;;;;;;;;21.34;29.19;95707.22;5008146;28;19978;-64
2022/07/31 09:11:25;;;;;;;;;;;;;;;21.58;28.88;95696.22;5011687;28;20212;-63
2022/07/31 09:13:51;;;;;;;;;;;;;;;21.72;28.57;95704.00;5014524;28;19984;-63
2022/07/31 09:16:16;;;;;;;;;;;;;;;21.99;27.77;95701.44;5010171;28;19960;-63
2022/07/31 09:18:42;;;;;;;;;;;;;;;22.15;27.99;95693.50;5006611;28;19989;-64
2022/07/31 09:21:07;;;;;;;;;;;;;;;22.17;28.13;95698.69;5013674;28;20032;-63
2022/07/31 09:23:32;;;;;;;;;;;;;;;22.25;27.26;95692.81;5010716;28;20084;-63
2022/07/31 09:26:02;;;;;;;;;;;;;;;21.71;28.11;95691.50;5009236;28;20498;-63
2022/07/31 09:28:34;;;;;;;;;;;;;;;21.72;27.78;95696.69;5007020;28;19961;-63
2022/07/31 09:30:59;;;;;;;;;;;;;;;21.09;29.17;95694.88;5010645;28;19961;-63
2022/07/31 09:33:26;;;;;;;;;;;;;;;21.16;29.01;95693.88;5014231;28;19985;-64
2022/07/31 09:35:52;;;;;;;;;;;;;;;20.80;29.42;95697.59;5014295;28;19971;-63
2022/07/31 09:38:17;;;;;;;;;;;;;;;21.72;27.91;95693.19;5008005;28;19991;-63
2022/07/31 09:40:42;;;;;;;;;;;;;;;21.89;28.10;95702.09;5006523;28;20662;-63
2022/07/31 09:43:18;;;;;;;;;;;;;;;21.28;29.20;95689.22;5006310;28;20010;-63
2022/07/31 09:45:45;;;;;;;;;;;;;;;21.10;29.04;95701.91;5006561;28;19986;-63
2022/07/31 09:48:13;;;;;;;;;;;;;;;21.75;28.40;95696.19;5006745;28;20660;-63
2022/07/31 09:50:59;;;;;;;;;;;;;;;22.15;28.21;95699.75;5007027;28;20278;-63
2022/07/31 09:53:24;;;;;;;;;;;;;;;22.34;27.49;95694.03;5008627;28;20058;-63
2022/07/31 09:55:50;;;;;;;;;;;;;;;22.75;27.06;95684.75;5007999;28;20053;-63
2022/07/31 09:58:15;;;;;;;;;;;;;;;23.65;26.03;95690.72;5007351;28;20038;-64
2022/07/31 10:00:40;;;;;;;;;;;;;;;22.79;26.91;95694.03;5008080;28;20310;-63
2022/07/31 10:03:05;;;;;;;;;;;;;;;23.12;26.76;95688.66;5007880;28;20248;-64
2022/07/31 10:05:30;;;;;;;;;;;;;;;24.62;24.49;95686.09;5018889;28;19973;-64
2022/07/31 10:07:56;;;;;;;;;;;;;;;24.22;25.23;95688.34;5015313;28;19966;-64
2022/07/31 10:10:22;;;;;;;;;;;;;;;24.09;25.03;95697.81;5006620;28;19978;-65
2022/07/31 10:12:48;;;;;;;;;;;;;;;24.02;24.97;95689.91;5005903;28;20073;-64
2022/07/31 10:15:14;;;;;;;;;;;;;;;23.52;26.33;95714.53;5007040;28;19948;-64
2022/07/31 10:17:40;;;;;;;;;;;;;;;22.50;27.55;95683.38;5010984;28;19981;-64
2022/07/31 10:20:06;;;;;;;;;;;;;;;23.36;26.11;95686.44;5005629;28;19981;-64
2022/07/31 10:22:38;;;;;;;;;;;;;;;23.20;27.58;95690.09;4987612;28;20070;-64
2022/07/31 10:25:03;;;;;;;;;;;;;;;23.34;26.65;95698.63;5007509;28;20026;-64
2022/07/31 10:27:29;;;;;;;;;;;;;;;23.15;26.80;95682.72;5003699;28;20069;-64
2022/07/31 10:29:54;;;;;;;;;;;;;;;23.70;25.82;95671.75;5009805;28;20092;-63
2022/07/31 10:32:19;;;;;;;;;;;;;;;23.02;27.19;95673.88;4983358;28;20208;-63
2022/07/31 10:34:45;;;;;;;;;;;;;;;22.50;27.85;95667.91;5005437;28;19995;-64
2022/07/31 10:37:21;;;;;;;;;;;;;;;23.29;26.18;95664.91;4984282;28;20441;-64
2022/07/31 10:39:49;;;;;;;;;;;;;;;24.01;26.21;95669.22;4985022;28;19999;-64
2022/07/31 10:42:22;;;;;;;;;;;;;;;24.28;25.47;95668.28;5002256;28;20313;-63
2022/07/31 10:44:52;;;;;;;;;;;;;;;23.68;26.34;95663.84;5003069;28;20079;-63
2022/07/31 10:47:18;;;;;;;;;;;;;;;23.99;26.48;95662.44;4994386;28;20096;-63
2022/07/31 10:49:44;;;;;;;;;;;;;;;23.95;25.55;95664.84;5002962;28;20075;-64
2022/07/31 10:52:09;;;;;;;;;;;;;;;23.05;26.98;95672.56;5003395;28;20123;-64
2022/07/31 10:54:41;;;;;;;;;;;;;;;24.84;24.85;95666.00;4984974;28;20025;-64
2022/07/31 10:57:06;;;;;;;;;;;;;;;24.53;25.32;95655.03;5011799;28;19978;-64
2022/07/31 10:59:31;;;;;;;;;;;;;;;23.97;26.61;95653.69;5003324;28;19955;-64
2022/07/31 11:01:57;;;;;;;;;;;;;;;25.44;25.50;95641.00;5003644;28;20241;-64
2022/07/31 11:04:30;;;;;;;;;;;;;;;25.20;25.25;95640.75;5008653;28;19964;-64
2022/07/31 11:06:56;;;;;;;;;;;;;;;25.43;24.50;95649.47;5013225;28;20030;-64
2022/07/31 11:09:22;;;;;;;;;;;;;;;24.99;24.73;95657.09;5010388;28;20400;-64
2022/07/31 11:11:47;;;;;;;;;;;;;;;25.05;24.75;95655.19;4983930;28;19951;-64
2022/07/31 11:14:12;;;;;;;;;;;;;;;24.07;26.50;95667.34;5009958;28;19970;-63
2022/07/31 11:16:48;;;;;;;;;;;;;;;24.38;25.88;95656.66;5011574;28;20056;-64
2022/07/31 11:19:13;;;;;;;;;;;;;;;23.77;27.65;95664.22;5004083;28;20036;-64
2022/07/31 11:21:39;;;;;;;;;;;;;;;23.49;27.94;95651.75;5014032;28;20005;-64
2022/07/31 11:24:30;;;;;;;;;;;;;;;24.65;25.57;95644.75;5009290;28;20177;-64
2022/07/31 11:26:56;;;;;;;;;;;;;;;24.16;25.64;95657.59;5011377;28;19968;-64
2022/07/31 11:29:24;;;;;;;;;;;;;;;23.05;27.63;95651.66;5006449;28;20377;-64
2022/07/31 11:31:50;;;;;;;;;;;;;;;22.89;27.52;95642.56;5003709;28;20467;-63
2022/07/31 11:34:15;;;;;;;;;;;;;;;22.14;28.86;95637.66;5005919;28;20074;-63
2022/07/31 11:36:41;;;;;;;;;;;;;;;22.19;29.54;95636.91;5004339;28;20011;-63
2022/07/31 11:39:10;;;;;;;;;;;;;;;22.15;28.63;95640.13;5005005;28;20018;-63
2022/07/31 11:41:35;;;;;;;;;;;;;;;23.02;27.71;95635.06;5004502;28;20453;-63
2022/07/31 11:44:02;;;;;;;;;;;;;;;22.52;28.91;95626.97;5007745;28;20023;-63
2022/07/31 11:46:27;;;;;;;;;;;;;;;22.42;28.80;95635.81;5007686;28;20104;-64
2022/07/31 11:48:53;;;;;;;;;;;;;;;22.56;29.10;95627.31;5002374;28;20066;-64
2022/07/31 11:51:18;;;;;;;;;;;;;;;22.28;29.34;95625.38;4994230;28;20011;-64
2022/07/31 11:53:44;;;;;;;;;;;;;;;22.77;28.61;95631.03;5002457;28;20479;-64
2022/07/31 11:56:09;;;;;;;;;;;;;;;21.84;28.34;95628.03;5003855;28;19998;-64
2022/07/31 11:58:35;;;;;;;;;;;;;;;24.01;26.58;95625.75;5003429;28;19983;-64
2022/07/31 12:01:01;;;;;;;;;;;;;;;23.62;27.49;95631.47;4985972;28;19988;-64
2022/07/31 12:03:29;;;;;;;;;;;;;;;23.62;26.25;95618.69;5005627;28;19983;-64
2022/07/31 12:05:54;;;;;;;;;;;;;;;23.17;27.95;95631.69;5003580;28;20418;-65
2022/07/31 12:08:20;;;;;;;;;;;;;;;22.89;28.11;95634.44;5003679;28;20043;-64
2022/07/31 12:10:45;;;;;;;;;;;;;;;22.43;28.96;95631.22;4983953;28;19987;-64
2022/07/31 12:13:11;;;;;;;;;;;;;;;22.73;28.52;95629.91;4985514;28;19984;-64
2022/07/31 12:15:36;;;;;;;;;;;;;;;23.00;29.00;95623.66;5012714;28;19963;-64
2022/07/31 12:18:03;;;;;;;;;;;;;;;24.25;27.02;95625.28;5005451;28;20209;-65
2022/07/31 12:20:29;;;;;;;;;;;;;;;23.23;27.35;95633.38;5008133;28;20077;-64
2022/07/31 12:23:00;;;;;;;;;;;;;;;23.65;27.00;95626.31;4998110;28;20009;-64
2022/07/31 12:25:26;;;;;;;;;;;;;;;24.99;25.35;95623.59;5002123;28;19986;-64
2022/07/31 12:27:54;;;;;;;;;;;;;;;24.40;26.43;95621.81;5000338;28;19955;-64
2022/07/31 12:30:23;;;;;;;;;;;;;;;24.45;26.85;95624.53;5000419;28;20382;-64
2022/07/31 12:32:48;;;;;;;;;;;;;;;22.64;27.46;95626.88;5000486;28;20071;-64
2022/07/31 12:35:13;;;;;;;;;;;;;;;22.44;28.38;95632.84;4985316;28;20028;-64
2022/07/31 12:37:43;;;;;;;;;;;;;;;21.95;29.71;95620.88;4986999;28;20422;-64
2022/07/31 12:40:08;;;;;;;;;;;;;;;22.13;29.36;95628.72;5004997;28;19979;-64
2022/07/31 12:42:34;;;;;;;;;;;;;;;21.75;29.97;95624.94;5010571;28;20033;-64